createdAt,value
2017-04-05T00:00:19.224Z,64.99
2017-04-05T00:01:17.786Z,65.46
2017-04-05T00:02:16.291Z,64.78
2017-04-05T00:03:14.840Z,64.46
2017-04-05T00:04:13.350Z,64.41
2017-04-05T00:05:11.927Z,64.78
2017-04-05T00:06:10.467Z,64.42
2017-04-05T00:07:09.130Z,63.75
2017-04-05T00:08:07.772Z,64.44
2017-04-05T00:09:06.389Z,64.85
2017-04-05T00:10:04.987Z,65.51
2017-04-05T00:11:03.524Z,65.67
2017-04-05T00:12:02.163Z,65.82
2017-04-05T00:13:00.679Z,65.03
2017-04-05T00:13:59.222Z,65.41
2017-04-05T00:14:57.752Z,65.56
2017-04-05T00:15:56.328Z,65.19
2017-04-05T00:16:54.879Z,65.07
2017-04-05T00:17:53.400Z,65.01
2017-04-05T00:18:51.910Z,64.76
2017-04-05T00:19:50.510Z,64.40
2017-04-05T00:20:49.050Z,63.50
2017-04-05T00:21:47.619Z,63.03
2017-04-05T00:22:46.114Z,63.22
2017-04-05T00:23:44.707Z,64.05
2017-04-05T00:24:43.215Z,64.10
2017-04-05T00:25:41.763Z,64.63
2017-04-05T00:26:40.262Z,63.98
2017-04-05T00:27:38.814Z,64.24
2017-04-05T00:28:37.362Z,64.38
2017-04-05T00:29:35.898Z,64.47
2017-04-05T00:30:34.416Z,64.26
2017-04-05T00:31:33.135Z,64.86
2017-04-05T00:32:31.898Z,64.58
2017-04-05T00:33:30.578Z,65.06
2017-04-05T00:34:29.175Z,65.22
2017-04-05T00:35:27.763Z,65.91
2017-04-05T00:36:26.386Z,65.69
2017-04-05T00:37:24.894Z,65.40
2017-04-05T00:38:23.407Z,65.50
2017-04-05T00:39:21.931Z,64.55
2017-04-05T00:40:20.495Z,65.22
2017-04-05T00:41:19.024Z,65.37
2017-04-05T00:42:17.561Z,66.05
2017-04-05T00:43:16.098Z,66.48
2017-04-05T00:44:14.635Z,66.49
2017-04-05T00:45:13.199Z,65.77
2017-04-05T00:46:11.803Z,65.37
2017-04-05T00:47:10.326Z,65.45
2017-04-05T00:48:08.939Z,65.63
2017-04-05T00:49:07.527Z,65.49
2017-04-05T00:50:06.083Z,65.72
2017-04-05T00:51:04.651Z,65.79
2017-04-05T00:52:03.219Z,66.30
2017-04-05T00:53:01.763Z,66.47
2017-04-05T00:54:00.282Z,66.46
2017-04-05T00:54:58.879Z,65.84
2017-04-05T00:55:57.490Z,64.88
2017-04-05T00:56:55.998Z,64.55
2017-04-05T00:57:54.585Z,64.47
2017-04-05T00:58:53.125Z,65.31
2017-04-05T00:59:51.641Z,65.48
2017-04-05T01:00:50.159Z,66.02
2017-04-05T01:01:48.730Z,65.69
2017-04-05T01:02:47.253Z,66.37
2017-04-05T01:03:45.754Z,66.44
2017-04-05T01:04:44.263Z,66.63
2017-04-05T01:05:42.764Z,66.05
2017-04-05T01:06:41.332Z,66.26
2017-04-05T01:07:39.839Z,66.28
2017-04-05T01:08:38.362Z,67.30
2017-04-05T01:09:36.871Z,66.78
2017-04-05T01:10:35.430Z,66.48
2017-04-05T01:11:33.931Z,66.42
2017-04-05T01:12:32.487Z,66.53
2017-04-05T01:13:31.010Z,66.66
2017-04-05T01:14:29.495Z,66.82
2017-04-05T01:15:28.112Z,66.66
2017-04-05T01:16:26.636Z,65.82
2017-04-05T01:17:25.199Z,65.46
2017-04-05T01:18:23.766Z,64.84
2017-04-05T01:19:22.276Z,64.34
2017-04-05T01:20:20.851Z,63.96
2017-04-05T01:21:19.459Z,64.34
2017-04-05T01:22:18.016Z,65.18
2017-04-05T01:23:16.554Z,65.84
2017-04-05T01:24:15.150Z,65.26
2017-04-05T01:25:13.656Z,65.09
2017-04-05T01:26:12.186Z,64.35
2017-04-05T01:27:10.700Z,63.53
2017-04-05T01:28:09.263Z,63.96
2017-04-05T01:29:07.880Z,65.40
2017-04-05T01:30:06.364Z,66.02
2017-04-05T01:31:04.863Z,66.78
2017-04-05T01:32:03.401Z,66.33
2017-04-05T01:33:01.927Z,66.84
2017-04-05T01:34:00.467Z,67.21
2017-04-05T01:34:59.038Z,66.78
2017-04-05T01:35:57.548Z,66.37
2017-04-05T01:36:56.073Z,67.07
2017-04-05T01:37:54.579Z,67.41
2017-04-05T01:38:53.115Z,68.17
2017-04-05T01:39:51.637Z,67.15
2017-04-05T01:40:50.194Z,67.74
2017-04-05T01:41:48.739Z,67.96
2017-04-05T01:42:47.230Z,67.50
2017-04-05T01:43:45.922Z,67.87
2017-04-05T01:44:44.419Z,68.04
2017-04-05T01:45:42.975Z,68.21
2017-04-05T01:46:41.488Z,68.36
2017-04-05T01:47:39.975Z,67.98
2017-04-05T01:48:38.523Z,68.21
2017-04-05T01:49:37.035Z,68.48
2017-04-05T01:50:35.612Z,68.08
2017-04-05T01:51:34.142Z,67.86
2017-04-05T01:52:32.693Z,68.21
2017-04-05T01:53:31.203Z,68.57
2017-04-05T01:54:29.935Z,67.84
2017-04-05T01:55:28.495Z,67.80
2017-04-05T01:56:26.992Z,68.52
2017-04-05T01:57:25.476Z,68.41
2017-04-05T01:58:23.996Z,68.16
2017-04-05T01:59:22.602Z,68.43
2017-04-05T02:00:21.172Z,68.71
2017-04-05T02:01:19.912Z,69.23
2017-04-05T02:02:18.578Z,69.12
2017-04-05T02:03:17.189Z,69.30
2017-04-05T02:04:15.794Z,68.36
2017-04-05T02:05:14.415Z,68.68
2017-04-05T02:06:12.979Z,67.90
2017-04-05T02:07:11.506Z,67.01
2017-04-05T02:08:10.191Z,66.50
2017-04-05T02:09:08.879Z,65.85
2017-04-05T02:10:07.503Z,66.12
2017-04-05T02:11:06.087Z,65.94
2017-04-05T02:12:04.751Z,65.95
2017-04-05T02:13:03.347Z,66.52
2017-04-05T02:14:01.879Z,66.35
2017-04-05T02:15:00.398Z,65.62
2017-04-05T02:15:58.895Z,65.21
2017-04-05T02:16:57.418Z,64.98
2017-04-05T02:17:55.907Z,65.04
2017-04-05T02:18:54.443Z,65.39
2017-04-05T02:19:53.110Z,65.79
2017-04-05T02:20:51.714Z,66.22
2017-04-05T02:21:50.206Z,67.86
2017-04-05T02:22:48.834Z,67.53
2017-04-05T02:23:47.499Z,67.13
2017-04-05T02:24:46.095Z,67.35
2017-04-05T02:25:44.650Z,67.74
2017-04-05T02:26:43.242Z,68.37
2017-04-05T02:27:41.758Z,68.62
2017-04-05T02:28:40.303Z,69.02
2017-04-05T02:29:38.818Z,68.91
2017-04-05T02:30:37.331Z,69.00
2017-04-05T02:31:35.927Z,69.49
2017-04-05T02:32:34.563Z,70.16
2017-04-05T02:33:33.098Z,70.50
2017-04-05T02:34:31.612Z,71.05
2017-04-05T02:35:30.220Z,70.45
2017-04-05T02:36:28.823Z,70.16
2017-04-05T02:37:27.490Z,70.00
2017-04-05T02:38:26.087Z,70.12
2017-04-05T02:39:24.594Z,70.41
2017-04-05T02:40:23.066Z,70.41
2017-04-05T02:41:21.594Z,70.60
2017-04-05T02:42:20.127Z,70.65
2017-04-05T02:43:18.835Z,71.09
2017-04-05T02:44:17.349Z,71.39
2017-04-05T02:45:15.978Z,70.92
2017-04-05T02:46:14.626Z,70.92
2017-04-05T02:47:13.167Z,70.73
2017-04-05T02:48:11.703Z,70.80
2017-04-05T02:49:10.334Z,70.57
2017-04-05T02:50:08.890Z,71.04
2017-04-05T02:51:07.410Z,71.20
2017-04-05T02:52:05.907Z,70.68
2017-04-05T02:53:04.508Z,71.30
2017-04-05T02:54:02.999Z,70.96
2017-04-05T02:55:01.508Z,70.44
2017-04-05T02:56:00.017Z,70.50
2017-04-05T02:56:58.599Z,70.49
2017-04-05T02:57:57.107Z,70.01
2017-04-05T02:58:55.615Z,70.13
2017-04-05T02:59:54.167Z,70.44
2017-04-05T03:00:52.795Z,70.55
2017-04-05T03:01:51.291Z,71.09
2017-04-05T03:02:49.783Z,71.07
2017-04-05T03:03:48.335Z,71.84
2017-04-05T03:04:46.955Z,71.01
2017-04-05T03:05:45.519Z,70.73
2017-04-05T03:06:44.038Z,71.37
2017-04-05T03:07:42.538Z,71.50
2017-04-05T03:08:41.042Z,71.10
2017-04-05T03:09:39.562Z,71.00
2017-04-05T03:10:38.071Z,70.47
2017-04-05T03:11:36.620Z,70.03
2017-04-05T03:12:35.251Z,70.22
2017-04-05T03:13:33.795Z,70.64
2017-04-05T03:14:32.379Z,70.61
2017-04-05T03:15:30.901Z,71.00
2017-04-05T03:16:29.428Z,70.51
2017-04-05T03:17:27.949Z,70.35
2017-04-05T03:18:26.467Z,69.29
2017-04-05T03:19:25.080Z,68.45
2017-04-05T03:20:24.475Z,69.14
2017-04-05T03:21:22.971Z,68.91
2017-04-05T03:22:21.549Z,68.59
2017-04-05T03:23:20.219Z,68.80
2017-04-05T03:24:18.798Z,68.95
2017-04-05T03:25:17.343Z,68.90
2017-04-05T03:26:15.841Z,68.11
2017-04-05T03:27:14.382Z,67.59
2017-04-05T03:28:13.179Z,67.36
2017-04-05T03:29:11.700Z,67.27
2017-04-05T03:30:10.212Z,67.21
2017-04-05T03:31:08.723Z,67.27
2017-04-05T03:32:07.255Z,67.16
2017-04-05T03:33:05.799Z,67.92
2017-04-05T03:34:04.327Z,68.85
2017-04-05T03:35:02.895Z,68.06
2017-04-05T03:36:01.512Z,68.38
2017-04-05T03:37:00.032Z,68.68
2017-04-05T03:37:58.531Z,68.37
2017-04-05T03:38:57.142Z,68.73
2017-04-05T03:39:55.643Z,68.88
2017-04-05T03:40:54.155Z,69.46
2017-04-05T03:41:52.996Z,69.49
2017-04-05T03:42:51.674Z,69.74
2017-04-05T03:43:50.292Z,70.07
2017-04-05T03:44:48.913Z,70.62
2017-04-05T03:45:47.383Z,71.52
2017-04-05T03:46:45.957Z,71.54
2017-04-05T03:47:44.462Z,71.91
2017-04-05T03:48:42.967Z,71.97
2017-04-05T03:49:41.451Z,71.50
2017-04-05T03:50:39.987Z,71.12
2017-04-05T03:51:38.483Z,70.67
2017-04-05T03:52:37.210Z,70.85
2017-04-05T03:53:35.724Z,70.47
2017-04-05T03:54:34.345Z,70.39
2017-04-05T03:55:32.934Z,70.84
2017-04-05T03:56:31.428Z,71.08
2017-04-05T03:57:29.936Z,70.78
2017-04-05T03:58:28.483Z,70.03
2017-04-05T03:59:27.083Z,69.59
2017-04-05T04:00:25.808Z,69.19
2017-04-05T04:01:24.351Z,68.49
2017-04-05T04:02:22.886Z,68.07
2017-04-05T04:03:21.433Z,67.61
2017-04-05T04:04:19.944Z,67.74
2017-04-05T04:05:18.438Z,68.53
2017-04-05T04:06:16.926Z,69.00
2017-04-05T04:07:15.423Z,68.79
2017-04-05T04:08:13.934Z,69.01
2017-04-05T04:09:12.572Z,69.79
2017-04-05T04:10:11.216Z,69.31
2017-04-05T04:11:09.696Z,68.96
2017-04-05T04:12:08.299Z,68.78
2017-04-05T04:13:06.871Z,68.61
2017-04-05T04:14:05.409Z,68.43
2017-04-05T04:15:03.972Z,68.29
2017-04-05T04:16:02.604Z,68.16
2017-04-05T04:17:01.198Z,67.84
2017-04-05T04:17:59.791Z,68.50
2017-04-05T04:18:58.318Z,69.64
2017-04-05T04:19:56.826Z,69.81
2017-04-05T04:20:55.316Z,69.50
2017-04-05T04:21:53.843Z,69.87
2017-04-05T04:22:52.414Z,69.92
2017-04-05T04:23:50.925Z,69.61
2017-04-05T04:24:49.408Z,69.83
2017-04-05T04:25:47.923Z,69.56
2017-04-05T04:26:46.444Z,68.77
2017-04-05T04:27:44.935Z,68.67
2017-04-05T04:28:43.467Z,68.50
2017-04-05T04:29:41.969Z,68.45
2017-04-05T04:30:40.855Z,68.60
2017-04-05T04:31:39.383Z,68.86
2017-04-05T04:32:38.018Z,69.95
2017-04-05T04:33:36.573Z,69.57
2017-04-05T04:34:35.151Z,69.79
2017-04-05T04:35:33.719Z,69.91
2017-04-05T04:36:32.259Z,70.24
2017-04-05T04:37:30.782Z,69.80
2017-04-05T04:38:29.323Z,70.24
2017-04-05T04:39:27.830Z,70.56
2017-04-05T04:40:26.388Z,70.93
2017-04-05T04:41:24.937Z,70.91
2017-04-05T04:42:23.472Z,71.26
2017-04-05T04:43:21.976Z,72.56
2017-04-05T04:44:20.636Z,72.42
2017-04-05T04:45:19.175Z,72.82
2017-04-05T04:46:17.671Z,72.28
2017-04-05T04:47:16.303Z,72.30
2017-04-05T04:48:15.040Z,72.73
2017-04-05T04:49:13.590Z,72.43
2017-04-05T04:50:12.114Z,72.49
2017-04-05T04:51:10.657Z,72.22
2017-04-05T04:52:09.179Z,72.34
2017-04-05T04:53:07.760Z,72.59
2017-04-05T04:54:06.359Z,72.59
2017-04-05T04:55:04.979Z,72.90
2017-04-05T04:56:03.683Z,72.85
2017-04-05T04:57:02.290Z,71.87
2017-04-05T04:58:00.799Z,71.48
2017-04-05T04:58:59.363Z,70.90
2017-04-05T04:59:58.188Z,70.22
2017-04-05T05:00:56.788Z,70.77
2017-04-05T05:01:55.322Z,70.89
2017-04-05T05:02:53.830Z,71.47
2017-04-05T05:03:52.318Z,71.36
2017-04-05T05:04:50.832Z,71.36
2017-04-05T05:05:49.364Z,70.84
2017-04-05T05:06:47.881Z,70.32
2017-04-05T05:07:46.479Z,69.82
2017-04-05T05:08:45.118Z,69.58
2017-04-05T05:09:43.655Z,69.02
2017-04-05T05:10:42.372Z,68.41
2017-04-05T05:11:40.951Z,68.75
2017-04-05T05:12:39.520Z,68.70
2017-04-05T05:13:38.045Z,68.63
2017-04-05T05:14:36.592Z,68.98
2017-04-05T05:15:35.123Z,68.53
2017-04-05T05:16:33.636Z,69.22
2017-04-05T05:17:32.154Z,69.08
2017-04-05T05:18:30.665Z,69.54
2017-04-05T05:19:29.197Z,70.60
2017-04-05T05:20:27.827Z,70.55
2017-04-05T05:21:26.441Z,69.99
2017-04-05T05:22:25.030Z,70.63
2017-04-05T05:23:23.680Z,70.33
2017-04-05T05:24:22.314Z,70.51
2017-04-05T05:25:20.838Z,71.07
2017-04-05T05:26:19.323Z,71.53
2017-04-05T05:27:17.831Z,71.85
2017-04-05T05:28:16.356Z,72.29
2017-04-05T05:29:14.879Z,72.38
2017-04-05T05:30:13.428Z,72.42
2017-04-05T05:31:11.987Z,72.07
2017-04-05T05:32:10.505Z,72.11
2017-04-05T05:33:09.239Z,71.82
2017-04-05T05:34:07.859Z,71.73
2017-04-05T05:35:06.388Z,71.48
2017-04-05T05:36:04.927Z,72.17
2017-04-05T05:37:03.444Z,72.16
2017-04-05T05:38:02.122Z,71.93
2017-04-05T05:39:00.669Z,72.16
2017-04-05T05:39:59.271Z,72.30
2017-04-05T05:40:57.764Z,73.79
2017-04-05T05:41:56.251Z,73.23
2017-04-05T05:42:54.772Z,72.05
2017-04-05T05:43:53.398Z,70.97
2017-04-05T05:44:51.943Z,70.45
2017-04-05T05:45:50.438Z,70.39
2017-04-05T05:46:48.991Z,70.67
2017-04-05T05:47:47.579Z,70.87
2017-04-05T05:48:46.128Z,70.94
2017-04-05T05:49:44.744Z,70.94
2017-04-05T05:50:43.474Z,70.80
2017-04-05T05:51:42.048Z,69.94
2017-04-05T05:52:40.592Z,69.30
2017-04-05T05:53:39.228Z,68.83
2017-04-05T05:54:37.762Z,69.61
2017-04-05T05:55:36.320Z,70.77
2017-04-05T05:56:34.842Z,70.80
2017-04-05T05:57:33.486Z,71.14
2017-04-05T05:58:32.245Z,70.53
2017-04-05T05:59:32.579Z,70.54
2017-04-05T06:00:31.384Z,70.55
2017-04-05T06:01:29.903Z,70.26
2017-04-05T06:02:28.443Z,70.10
2017-04-05T06:03:26.960Z,70.18
2017-04-05T06:04:25.478Z,69.96
2017-04-05T06:05:24.043Z,69.72
2017-04-05T06:06:22.981Z,69.19
2017-04-05T06:07:22.047Z,68.90
2017-04-05T06:08:20.627Z,68.72
2017-04-05T06:09:19.176Z,68.40
2017-04-05T06:10:17.791Z,69.94
2017-04-05T06:11:16.388Z,69.06
2017-04-05T06:12:15.049Z,69.26
2017-04-05T06:13:13.706Z,70.02
2017-04-05T06:14:12.453Z,69.67
2017-04-05T06:15:14.927Z,69.52
2017-04-05T06:16:13.520Z,69.60
2017-04-05T06:17:12.060Z,70.36
2017-04-05T06:18:10.799Z,71.03
2017-04-05T06:19:09.544Z,70.64
2017-04-05T06:20:08.194Z,70.36
2017-04-05T06:21:06.924Z,70.29
2017-04-05T06:22:05.471Z,70.49
2017-04-05T06:23:04.087Z,70.55
2017-04-05T06:24:02.780Z,70.40
2017-04-05T06:25:01.392Z,69.58
2017-04-05T06:26:00.039Z,69.05
2017-04-05T06:26:58.571Z,68.47
2017-04-05T06:27:57.406Z,68.26
2017-04-05T06:28:56.157Z,67.81
2017-04-05T06:29:54.873Z,67.39
2017-04-05T06:30:53.466Z,67.68
2017-04-05T06:31:54.605Z,67.55
2017-04-05T06:32:53.382Z,67.46
2017-04-05T06:33:52.052Z,67.82
2017-04-05T06:34:50.777Z,68.88
2017-04-05T06:35:49.287Z,68.87
2017-04-05T06:36:47.823Z,70.66
2017-04-05T06:37:46.411Z,70.12
2017-04-05T06:38:45.310Z,70.00
2017-04-05T06:39:43.862Z,70.66
2017-04-05T06:40:42.416Z,70.24
2017-04-05T06:41:41.121Z,69.50
2017-04-05T06:42:39.675Z,68.94
2017-04-05T06:43:38.250Z,69.39
2017-04-05T06:44:36.783Z,68.81
2017-04-05T06:45:35.312Z,68.42
2017-04-05T06:46:34.252Z,68.10
2017-04-05T06:47:32.761Z,68.41
2017-04-05T06:48:31.296Z,68.17
2017-04-05T06:49:29.911Z,67.84
2017-04-05T06:50:28.504Z,67.58
2017-04-05T06:51:27.145Z,67.33
2017-04-05T06:52:25.744Z,67.14
2017-04-05T06:53:24.332Z,67.12
2017-04-05T06:54:22.839Z,67.16
2017-04-05T06:55:21.458Z,66.74
2017-04-05T06:56:19.988Z,66.34
2017-04-05T06:57:18.620Z,66.30
2017-04-05T06:58:17.252Z,66.31
2017-04-05T06:59:15.774Z,67.01
2017-04-05T07:00:14.554Z,66.39
2017-04-05T07:01:13.208Z,66.00
2017-04-05T07:02:11.728Z,65.71
2017-04-05T07:03:10.286Z,65.69
2017-04-05T07:04:08.919Z,65.37
2017-04-05T07:05:08.484Z,65.04
2017-04-05T07:06:07.063Z,66.32
2017-04-05T07:07:06.147Z,66.13
2017-04-05T07:08:04.695Z,66.34
2017-04-05T07:09:03.405Z,67.61
2017-04-05T07:10:02.405Z,67.93
2017-04-05T07:11:00.958Z,68.44
2017-04-05T07:11:59.486Z,68.85
2017-04-05T07:12:58.122Z,68.70
2017-04-05T07:13:56.656Z,68.67
2017-04-05T07:14:55.222Z,68.16
2017-04-05T07:15:53.850Z,68.15
2017-04-05T07:16:52.441Z,68.30
2017-04-05T07:17:50.949Z,67.46
2017-04-05T07:18:49.489Z,67.31
2017-04-05T07:19:48.047Z,67.80
2017-04-05T07:20:46.608Z,67.63
2017-04-05T07:21:45.112Z,68.78
2017-04-05T07:22:43.731Z,68.87
2017-04-05T07:23:42.216Z,68.65
2017-04-05T07:24:40.727Z,68.25
2017-04-05T07:25:39.240Z,67.70
2017-04-05T07:26:37.776Z,67.66
2017-04-05T07:27:36.339Z,67.77
2017-04-05T07:28:34.847Z,67.88
2017-04-05T07:29:33.358Z,68.86
2017-04-05T07:30:31.867Z,68.89
2017-04-05T07:31:30.381Z,68.41
2017-04-05T07:32:28.879Z,69.45
2017-04-05T07:33:27.429Z,69.01
2017-04-05T07:34:25.952Z,69.31
2017-04-05T07:35:24.575Z,69.21
2017-04-05T07:36:23.107Z,68.84
2017-04-05T07:37:21.652Z,68.55
2017-04-05T07:38:20.181Z,68.56
2017-04-05T07:39:18.751Z,68.42
2017-04-05T07:40:17.291Z,67.47
2017-04-05T07:41:15.808Z,67.52
2017-04-05T07:42:14.345Z,67.89
2017-04-05T07:43:13.025Z,68.29
2017-04-05T07:44:11.629Z,68.10
2017-04-05T07:45:10.273Z,68.09
2017-04-05T07:46:08.840Z,68.37
2017-04-05T07:47:07.467Z,68.12
2017-04-05T07:48:05.975Z,68.50
2017-04-05T07:49:04.758Z,68.81
2017-04-05T07:50:03.356Z,68.67
2017-04-05T07:51:01.896Z,68.84
2017-04-05T07:52:00.586Z,68.85
2017-04-05T07:52:59.128Z,69.34
2017-04-05T07:53:57.720Z,69.34
2017-04-05T07:54:56.299Z,69.42
2017-04-05T07:55:54.808Z,69.33
2017-04-05T07:56:53.325Z,69.85
2017-04-05T07:57:51.811Z,69.62
2017-04-05T07:58:50.340Z,70.15
2017-04-05T07:59:48.882Z,70.23
2017-04-05T08:00:47.399Z,70.04
2017-04-05T08:01:46.023Z,69.82
2017-04-05T08:02:44.652Z,69.40
2017-04-05T08:03:43.308Z,69.76
2017-04-05T08:04:41.941Z,69.94
2017-04-05T08:05:40.573Z,69.77
2017-04-05T08:06:39.184Z,69.94
2017-04-05T08:07:37.836Z,70.27
2017-04-05T08:08:36.461Z,70.92
2017-04-05T08:09:34.982Z,70.41
2017-04-05T08:10:33.528Z,70.45
2017-04-05T08:11:32.036Z,70.20
2017-04-05T08:12:30.941Z,69.84
2017-04-05T08:13:29.472Z,70.41
2017-04-05T08:14:27.983Z,70.44
2017-04-05T08:15:26.504Z,71.05
2017-04-05T08:16:25.060Z,71.57
2017-04-05T08:17:23.751Z,70.70
2017-04-05T08:18:22.281Z,70.71
2017-04-05T08:19:20.872Z,69.91
2017-04-05T08:20:19.416Z,69.99
2017-04-05T08:21:18.005Z,70.00
2017-04-05T08:22:16.588Z,70.09
2017-04-05T08:23:15.148Z,69.73
2017-04-05T08:24:13.748Z,70.02
2017-04-05T08:25:12.272Z,70.05
2017-04-05T08:26:10.812Z,70.25
2017-04-05T08:27:09.333Z,70.53
2017-04-05T08:28:07.895Z,70.22
2017-04-05T08:29:06.439Z,70.19
2017-04-05T08:30:05.004Z,70.42
2017-04-05T08:31:03.640Z,70.60
2017-04-05T08:32:02.248Z,69.39
2017-04-05T08:33:00.828Z,69.99
2017-04-05T08:33:59.342Z,69.74
2017-04-05T08:34:58.152Z,70.29
2017-04-05T08:35:56.708Z,70.68
2017-04-05T08:36:55.298Z,70.38
2017-04-05T08:37:53.855Z,70.63
2017-04-05T08:38:52.471Z,70.16
2017-04-05T08:39:50.992Z,70.22
2017-04-05T08:40:49.524Z,70.57
2017-04-05T08:41:48.093Z,70.85
2017-04-05T08:42:46.644Z,70.65
2017-04-05T08:43:45.162Z,70.82
2017-04-05T08:44:43.655Z,71.15
2017-04-05T08:45:42.296Z,70.88
2017-04-05T08:46:40.931Z,71.33
2017-04-05T08:47:39.571Z,71.71
2017-04-05T08:48:38.255Z,71.69
2017-04-05T08:49:36.899Z,71.64
2017-04-05T08:50:35.439Z,71.42
2017-04-05T08:51:33.969Z,71.55
2017-04-05T08:52:32.545Z,71.85
2017-04-05T08:53:31.068Z,71.80
2017-04-05T08:54:29.600Z,72.62
2017-04-05T08:55:28.130Z,72.90
2017-04-05T08:56:26.641Z,72.47
2017-04-05T08:57:25.147Z,72.40
2017-04-05T08:58:23.744Z,72.26
2017-04-05T08:59:22.307Z,71.94
2017-04-05T09:00:20.984Z,72.45
2017-04-05T09:01:19.620Z,72.11
2017-04-05T09:02:18.544Z,71.70
2017-04-05T09:03:17.229Z,71.34
2017-04-05T09:04:15.773Z,70.70
2017-04-05T09:05:14.311Z,69.86
2017-04-05T09:06:12.911Z,70.09
2017-04-05T09:07:11.507Z,69.96
2017-04-05T09:08:10.212Z,69.38
2017-04-05T09:09:08.716Z,69.22
2017-04-05T09:10:07.250Z,69.51
2017-04-05T09:11:05.792Z,69.26
2017-04-05T09:12:04.343Z,69.28
2017-04-05T09:13:02.894Z,68.68
2017-04-05T09:14:01.483Z,69.11
2017-04-05T09:15:00.094Z,69.45
2017-04-05T09:15:58.646Z,69.23
2017-04-05T09:16:57.189Z,69.08
2017-04-05T09:17:55.748Z,68.70
2017-04-05T09:18:54.287Z,68.78
2017-04-05T09:19:52.937Z,68.45
2017-04-05T09:20:51.479Z,68.26
2017-04-05T09:21:50.060Z,67.95
2017-04-05T09:22:48.691Z,68.48
2017-04-05T09:23:47.239Z,69.07
2017-04-05T09:24:45.924Z,69.22
2017-04-05T09:25:44.513Z,69.00
2017-04-05T09:26:43.023Z,69.05
2017-04-05T09:27:41.591Z,69.60
2017-04-05T09:28:40.228Z,69.37
2017-04-05T09:29:38.982Z,69.38
2017-04-05T09:30:37.499Z,69.56
2017-04-05T09:31:36.056Z,70.09
2017-04-05T09:32:34.614Z,70.51
2017-04-05T09:33:33.147Z,70.40
2017-04-05T09:34:31.648Z,70.58
2017-04-05T09:35:30.171Z,70.37
2017-04-05T09:36:28.741Z,70.37
2017-04-05T09:37:27.399Z,70.10
2017-04-05T09:38:26.043Z,70.04
2017-04-05T09:39:24.603Z,70.13
2017-04-05T09:40:23.888Z,69.64
2017-04-05T09:41:22.425Z,69.75
2017-04-05T09:42:20.939Z,69.89
2017-04-05T09:43:19.511Z,70.17
2017-04-05T09:44:18.107Z,69.94
2017-04-05T09:45:16.639Z,70.25
2017-04-05T09:46:15.170Z,70.35
2017-04-05T09:47:13.723Z,70.67
2017-04-05T09:48:12.264Z,71.37
2017-04-05T09:49:10.875Z,70.76
2017-04-05T09:50:09.528Z,70.53
2017-04-05T09:51:08.167Z,71.24
2017-04-05T09:52:06.767Z,71.92
2017-04-05T09:53:05.452Z,72.19
2017-04-05T09:54:03.988Z,72.37
2017-04-05T09:55:02.520Z,72.19
2017-04-05T09:56:01.088Z,72.11
2017-04-05T09:56:59.647Z,71.90
2017-04-05T09:57:58.209Z,71.84
2017-04-05T09:58:56.804Z,71.39
2017-04-05T09:59:55.411Z,71.66
2017-04-05T10:00:54.044Z,71.59
2017-04-05T10:01:52.660Z,70.80
2017-04-05T10:02:51.179Z,70.63
2017-04-05T10:03:49.695Z,69.91
2017-04-05T10:04:49.137Z,69.88
2017-04-05T10:05:47.677Z,69.55
2017-04-05T10:06:46.226Z,69.62
2017-04-05T10:07:44.750Z,69.42
2017-04-05T10:08:43.306Z,69.21
2017-04-05T10:09:41.893Z,69.21
2017-04-05T10:10:40.464Z,69.47
2017-04-05T10:11:39.015Z,69.66
2017-04-05T10:12:37.515Z,69.62
2017-04-05T10:13:36.031Z,69.72
2017-04-05T10:14:34.547Z,69.94
2017-04-05T10:15:33.083Z,70.55
2017-04-05T10:16:31.648Z,70.45
2017-04-05T10:17:30.186Z,70.45
2017-04-05T10:18:28.791Z,70.41
2017-04-05T10:19:27.398Z,70.74
2017-04-05T10:20:25.996Z,71.04
2017-04-05T10:21:24.704Z,71.19
2017-04-05T10:22:23.353Z,71.28
2017-04-05T10:23:21.917Z,71.42
2017-04-05T10:24:20.415Z,71.24
2017-04-05T10:25:18.961Z,71.23
2017-04-05T10:26:17.540Z,71.26
2017-04-05T10:27:16.060Z,71.03
2017-04-05T10:28:14.613Z,70.75
2017-04-05T10:29:13.163Z,70.78
2017-04-05T10:30:11.703Z,70.70
2017-04-05T10:31:10.267Z,70.95
2017-04-05T10:32:08.817Z,71.11
2017-04-05T10:33:07.447Z,71.08
2017-04-05T10:34:05.959Z,71.52
2017-04-05T10:35:04.642Z,71.65
2017-04-05T10:36:03.227Z,71.74
2017-04-05T10:37:01.758Z,72.09
2017-04-05T10:38:00.278Z,72.08
2017-04-05T10:38:58.810Z,72.22
2017-04-05T10:39:57.327Z,71.83
2017-04-05T10:40:55.862Z,71.56
2017-04-05T10:41:54.379Z,72.24
2017-04-05T10:42:52.923Z,72.31
2017-04-05T10:43:51.444Z,72.48
2017-04-05T10:44:49.987Z,72.73
2017-04-05T10:45:48.516Z,72.87
2017-04-05T10:46:47.106Z,72.72
2017-04-05T10:47:45.674Z,72.48
2017-04-05T10:48:44.239Z,72.53
2017-04-05T10:49:42.827Z,72.38
2017-04-05T10:50:41.373Z,72.26
2017-04-05T10:51:39.982Z,72.20
2017-04-05T10:52:38.492Z,72.10
2017-04-05T10:53:37.014Z,71.65
2017-04-05T10:54:35.628Z,71.15
2017-04-05T10:55:34.173Z,70.92
2017-04-05T10:56:32.719Z,70.36
2017-04-05T10:57:31.227Z,69.88
2017-04-05T10:58:29.723Z,70.81
2017-04-05T10:59:28.351Z,70.36
2017-04-05T11:00:26.922Z,69.08
2017-04-05T11:01:25.483Z,69.01
2017-04-05T11:02:24.442Z,69.91
2017-04-05T11:03:22.955Z,70.12
2017-04-05T11:04:21.591Z,70.49
2017-04-05T11:05:20.231Z,70.51
2017-04-05T11:06:18.774Z,69.66
2017-04-05T11:07:17.363Z,69.81
2017-04-05T11:08:15.935Z,69.62
2017-04-05T11:09:14.496Z,69.54
2017-04-05T11:10:12.998Z,68.96
2017-04-05T11:11:11.644Z,69.27
2017-04-05T11:12:10.235Z,69.43
2017-04-05T11:13:08.836Z,69.08
2017-04-05T11:14:07.338Z,68.79
2017-04-05T11:15:05.949Z,68.30
2017-04-05T11:16:04.475Z,67.24
2017-04-05T11:17:03.040Z,67.64
2017-04-05T11:18:01.673Z,67.25
2017-04-05T11:19:00.253Z,67.79
2017-04-05T11:19:58.766Z,67.79
2017-04-05T11:20:57.345Z,67.85
2017-04-05T11:21:55.907Z,67.51
2017-04-05T11:22:54.491Z,67.95
2017-04-05T11:23:53.111Z,68.12
2017-04-05T11:24:51.767Z,68.28
2017-04-05T11:25:50.363Z,67.40
2017-04-05T11:26:48.984Z,66.83
2017-04-05T11:27:47.575Z,67.54
2017-04-05T11:28:46.107Z,67.12
2017-04-05T11:29:44.611Z,66.99
2017-04-05T11:30:43.171Z,66.66
2017-04-05T11:31:41.744Z,66.16
2017-04-05T11:32:40.275Z,66.34
2017-04-05T11:33:38.823Z,66.14
2017-04-05T11:34:37.334Z,66.80
2017-04-05T11:35:35.996Z,66.57
2017-04-05T11:36:34.551Z,66.87
2017-04-05T11:37:33.157Z,66.78
2017-04-05T11:38:31.817Z,67.04
2017-04-05T11:39:30.412Z,66.98
2017-04-05T11:40:29.081Z,66.93
2017-04-05T11:41:27.644Z,66.62
2017-04-05T11:42:26.190Z,66.45
2017-04-05T11:43:24.810Z,65.41
2017-04-05T11:44:23.391Z,64.54
2017-04-05T11:45:22.701Z,63.28
2017-04-05T11:46:21.231Z,63.99
2017-04-05T11:47:19.789Z,64.40
2017-04-05T11:48:18.419Z,63.89
2017-04-05T11:49:16.976Z,63.63
2017-04-05T11:50:15.566Z,63.37
2017-04-05T11:51:14.203Z,63.28
2017-04-05T11:52:12.868Z,63.39
2017-04-05T11:53:11.482Z,62.84
2017-04-05T11:54:10.071Z,62.88
2017-04-05T11:55:08.642Z,62.33
2017-04-05T11:56:07.165Z,62.00
2017-04-05T11:57:05.915Z,62.80
2017-04-05T11:58:04.512Z,63.42
2017-04-05T11:59:03.075Z,63.06
2017-04-05T12:00:01.684Z,63.30
2017-04-05T12:01:00.251Z,63.58
2017-04-05T12:01:58.776Z,63.14
2017-04-05T12:02:57.296Z,63.14
2017-04-05T12:03:55.816Z,63.88
2017-04-05T12:04:54.348Z,63.86
2017-04-05T12:05:52.883Z,63.65
2017-04-05T12:06:51.538Z,63.65
2017-04-05T12:07:50.163Z,63.16
2017-04-05T12:08:48.816Z,63.13
2017-04-05T12:09:47.468Z,62.44
2017-04-05T12:10:45.972Z,62.20
2017-04-05T12:11:44.519Z,61.92
2017-04-05T12:12:43.041Z,62.17
2017-04-05T12:13:41.623Z,62.34
2017-04-05T12:14:40.152Z,62.71
2017-04-05T12:15:38.700Z,62.52
2017-04-05T12:16:37.234Z,62.58
2017-04-05T12:17:35.831Z,62.20
2017-04-05T12:18:34.328Z,62.19
2017-04-05T12:19:32.876Z,62.21
2017-04-05T12:20:31.515Z,62.35
2017-04-05T12:21:30.289Z,62.12
2017-04-05T12:22:28.878Z,61.95
2017-04-05T12:23:27.451Z,61.89
2017-04-05T12:24:25.983Z,62.06
2017-04-05T12:25:24.558Z,62.01
2017-04-05T12:26:23.227Z,62.67
2017-04-05T12:27:21.822Z,62.76
2017-04-05T12:28:20.426Z,62.64
2017-04-05T12:29:19.058Z,62.18
2017-04-05T12:30:17.599Z,62.09
2017-04-05T12:31:16.131Z,62.24
2017-04-05T12:32:14.699Z,62.02
2017-04-05T12:33:13.233Z,62.22
2017-04-05T12:34:11.823Z,61.89